Time;durP1;ratioP1;P1;durP2;ratioP2;P2;SDS_P1;SDS_P2;PMS_P1;PMS_P2;Temp;Humidity;BMP_temperature;BMP_pressure;BME280_temperature;BME280_humidity;BME280_pressure;Samples;Min_cycle;Max_cycle;Signal;HPM_P1;HPM_P2
2022/05/21 00:00:01;;;;;;;;;3.00;3.00;;;;;18.28;53.28;101679.22;5015085;28;45497;-49
2022/05/21 00:02:27;;;;;;;;;5.25;3.00;;;;;18.46;53.34;101705.19;5015365;28;45464;-51
2022/05/21 00:04:52;;;;;;;;;6.50;4.00;;;;;18.43;53.66;101711.25;5015054;28;45667;-50
2022/05/21 00:07:18;;;;;;;;;4.00;3.00;;;;;18.38;53.82;101706.41;5015314;28;46543;-49
2022/05/21 00:09:43;;;;;;;;;3.00;3.00;;;;;18.37;53.87;101710.25;5014705;28;45449;-49
2022/05/21 00:12:09;;;;;;;;;3.25;3.00;;;;;18.36;53.80;101704.97;5015597;28;45338;-50
2022/05/21 00:14:34;;;;;;;;;3.50;3.25;;;;;18.35;53.89;101706.03;5013678;28;45485;-52
2022/05/21 00:17:01;;;;;;;;;5.00;5.00;;;;;18.33;53.91;101710.97;5014997;28;45437;-51
2022/05/21 00:19:26;;;;;;;;;3.80;3.80;;;;;18.33;53.96;101710.97;5015045;28;45442;-51
2022/05/21 00:21:52;;;;;;;;;3.75;2.75;;;;;18.37;54.03;101717.75;5013600;28;45402;-49
2022/05/21 00:24:17;;;;;;;;;3.75;3.25;;;;;18.34;53.79;101710.75;5015358;28;45635;-49
2022/05/21 00:26:43;;;;;;;;;5.50;4.00;;;;;18.39;54.05;101710.00;5014637;28;45413;-51
2022/05/21 00:29:09;;;;;;;;;3.00;3.00;;;;;18.34;53.79;101701.56;5015015;28;45574;-51
2022/05/21 00:31:36;;;;;;;;;7.25;6.00;;;;;18.36;54.33;101708.56;5014039;28;45394;-52
2022/05/21 00:34:01;;;;;;;;;4.60;2.60;;;;;18.36;53.93;101710.50;5018258;28;45422;-51
2022/05/21 00:36:27;;;;;;;;;4.25;4.00;;;;;18.38;54.02;101709.19;5018504;28;45504;-52
2022/05/21 00:38:53;;;;;;;;;4.00;4.00;;;;;18.40;53.87;101714.47;5017872;28;45342;-48
2022/05/21 00:41:18;;;;;;;;;4.50;4.00;;;;;18.41;54.15;101716.19;5018557;28;45382;-49
2022/05/21 00:43:54;;;;;;;;;3.50;3.50;;;;;18.18;53.96;101692.84;5018511;28;45670;-54
2022/05/21 00:46:33;;;;;;;;;2.00;2.00;;;;;18.36;53.88;101719.69;5017671;28;45368;-52
2022/05/21 00:49:14;;;;;;;;;4.60;2.80;;;;;18.32;53.76;101718.47;5017640;28;45706;-49
2022/05/21 00:51:52;;;;;;;;;2.00;2.00;;;;;18.28;54.33;101715.34;5018039;28;45387;-51
2022/05/21 00:54:19;;;;;;;;;2.60;2.60;;;;;18.27;53.97;101712.78;5018248;28;45206;-50
2022/05/21 00:56:47;;;;;;;;;2.40;2.40;;;;;18.27;54.15;101712.78;5000409;28;45828;-50
2022/05/21 01:01:57;;;;;;;;;2.40;2.40;;;;;18.06;54.89;101711.44;5003381;28;45413;-52
2022/05/21 01:04:24;;;;;;;;;3.00;2.40;;;;;17.68;55.29;101678.25;5000420;28;46299;-51
2022/05/21 01:06:49;;;;;;;;;2.80;2.00;;;;;17.92;54.98;101699.69;4999967;28;46833;-52
2022/05/21 01:09:15;;;;;;;;;4.00;3.00;;;;;17.96;55.39;101707.28;5017523;28;45275;-49
2022/05/21 01:11:41;;;;;;;;;2.75;2.75;;;;;17.99;54.89;101706.78;5017709;28;45353;-51
2022/05/21 01:14:08;;;;;;;;;3.00;3.00;;;;;18.01;54.99;101714.91;5017839;28;45244;-50
2022/05/21 01:16:34;;;;;;;;;2.60;2.00;;;;;17.93;55.03;101695.81;5017195;28;45390;-51
2022/05/21 01:19:07;;;;;;;;;2.75;2.25;;;;;18.04;54.95;101706.06;5016341;28;45310;-48
2022/05/21 01:21:32;;;;;;;;;6.00;2.00;;;;;18.06;54.99;101712.28;5016201;28;45362;-50
2022/05/21 01:23:58;;;;;;;;;4.50;3.00;;;;;18.06;54.75;101717.00;5017806;28;45571;-49
2022/05/21 01:26:23;;;;;;;;;3.75;3.25;;;;;17.86;55.00;101682.88;5015867;28;45788;-52
2022/05/21 01:28:49;;;;;;;;;5.00;5.00;;;;;17.94;55.31;101709.47;5016289;28;45343;-49
2022/05/21 01:31:14;;;;;;;;;4.00;3.00;;;;;17.76;55.24;101679.81;5016184;28;45448;-50
2022/05/21 01:33:41;;;;;;;;;2.50;2.50;;;;;17.80;55.22;101680.19;5017686;28;45392;-51
2022/05/21 01:36:07;;;;;;;;;3.40;3.00;;;;;17.95;55.20;101708.38;5016938;28;45919;-53
2022/05/21 01:38:33;;;;;;;;;2.50;2.00;;;;;17.74;55.22;101682.88;5017211;28;45921;-52
2022/05/21 01:40:59;;;;;;;;;5.25;3.75;;;;;17.79;55.40;101709.91;5017546;28;45468;-50
2022/05/21 01:46:09;;;;;;;;;2.80;2.00;;;;;17.89;55.41;101718.50;5017077;28;45942;-50
2022/05/21 01:48:35;;;;;;;;;2.25;1.75;;;;;17.69;55.21;101679.94;5016830;28;45390;-52
2022/05/21 01:51:01;;;;;;;;;6.50;4.25;;;;;17.92;55.30;101713.56;5017243;28;45378;-54
2022/05/21 01:53:26;;;;;;;;;4.00;4.00;;;;;17.74;55.70;101718.94;5015709;28;45365;-53
2022/05/21 01:55:53;;;;;;;;;3.25;3.25;;;;;17.72;55.65;101714.72;5016730;28;45351;-51
2022/05/21 01:58:19;;;;;;;;;4.40;4.00;;;;;17.75;55.64;101706.75;5015736;28;45389;-50
2022/05/21 02:00:45;;;;;;;;;3.25;3.25;;;;;17.81;55.34;101707.72;5005720;28;45424;-51
2022/05/21 02:03:11;;;;;;;;;4.75;4.00;;;;;17.79;55.17;101704.34;5033026;28;45234;-50
2022/05/21 02:05:37;;;;;;;;;3.00;3.00;;;;;17.48;55.27;101665.53;5027339;28;46630;-52
2022/05/21 02:08:03;;;;;;;;;4.25;4.00;;;;;17.67;55.66;101690.41;5035346;28;45724;-52
2022/05/21 02:10:29;;;;;;;;;3.60;2.80;;;;;17.79;55.35;101698.81;5035959;28;45350;-52
2022/05/21 02:12:54;;;;;;;;;5.00;3.00;;;;;17.65;55.25;101673.16;5034104;28;45468;-51
2022/05/21 02:15:20;;;;;;;;;5.25;3.00;;;;;17.79;55.17;101690.47;5036817;28;45972;-52
2022/05/21 02:17:45;;;;;;;;;3.00;3.00;;;;;17.87;55.29;101703.16;5035420;28;45286;-52
2022/05/21 02:20:11;;;;;;;;;2.50;2.00;;;;;17.88;55.01;101711.25;5037142;28;45337;-50
2022/05/21 02:22:37;;;;;;;;;2.00;2.00;;;;;17.79;55.08;101696.03;5033147;28;45403;-48
2022/05/21 02:25:07;;;;;;;;;5.50;4.00;;;;;17.86;54.73;101704.22;5016952;28;45712;-54
2022/05/21 02:27:32;;;;;;;;;3.80;1.40;;;;;17.87;54.90;101708.69;5016647;28;45322;-51
2022/05/21 02:29:58;;;;;;;;;2.50;2.50;;;;;17.67;54.90;101676.53;5016905;28;45373;-48
2022/05/21 02:32:23;;;;;;;;;1.75;1.75;;;;;17.89;54.76;101712.09;5016968;28;45318;-54
2022/05/21 02:34:49;;;;;;;;;2.00;2.00;;;;;17.86;54.65;101710.66;5015064;28;47278;-50
2022/05/21 02:39:58;;;;;;;;;4.00;3.00;;;;;17.83;54.49;101711.09;5016702;28;45393;-55
2022/05/21 02:45:08;;;;;;;;;3.60;3.60;;;;;17.83;54.27;101707.50;5016458;28;45460;-52
2022/05/21 02:47:34;;;;;;;;;2.00;2.00;;;;;17.83;54.39;101705.56;5016293;28;45300;-52
2022/05/21 02:49:59;;;;;;;;;2.50;2.00;;;;;17.71;54.67;101699.97;5016585;28;45409;-52
2022/05/21 02:52:25;;;;;;;;;2.00;2.00;;;;;17.82;54.68;101714.16;5016695;28;45379;-51
2022/05/21 02:54:51;;;;;;;;;1.50;1.00;;;;;17.80;54.63;101721.84;5014686;28;46657;-51
2022/05/21 02:57:16;;;;;;;;;4.00;2.00;;;;;17.75;54.86;101717.00;5015566;28;45338;-50
2022/05/21 02:59:41;;;;;;;;;2.00;2.00;;;;;17.74;55.08;101710.63;5016303;28;45362;-49
2022/05/21 03:02:07;;;;;;;;;4.00;4.00;;;;;17.73;55.14;101717.22;5016500;28;45379;-53
2022/05/21 03:04:33;;;;;;;;;3.00;3.00;;;;;17.74;55.83;101716.19;5014610;28;45363;-48
2022/05/21 03:06:58;;;;;;;;;2.00;2.00;;;;;17.55;55.03;101678.47;5014708;28;45354;-52
2022/05/21 03:12:09;;;;;;;;;4.00;4.00;;;;;17.00;55.29;101600.66;5016075;28;45352;-50
2022/05/21 03:14:37;;;;;;;;;4.00;3.80;;;;;17.55;55.40;101686.78;5014500;28;46438;-47
2022/05/21 03:17:03;;;;;;;;;4.00;2.00;;;;;17.72;55.21;101707.22;5015571;28;45378;-54
2022/05/21 03:19:29;;;;;;;;;3.80;3.00;;;;;17.60;55.74;101700.78;5016180;28;45407;-50
2022/05/21 03:21:55;;;;;;;;;3.80;3.80;;;;;17.70;55.18;101714.94;5015841;28;45332;-53
2022/05/21 03:24:21;;;;;;;;;3.00;3.00;;;;;17.72;54.92;101718.31;5015349;28;45476;-48
2022/05/21 03:26:46;;;;;;;;;3.00;3.00;;;;;17.72;55.09;101717.50;5015674;28;45345;-49
2022/05/21 03:29:12;;;;;;;;;7.00;4.25;;;;;17.53;55.26;101720.31;5015412;28;45299;-54
2022/05/21 03:31:38;;;;;;;;;3.75;2.25;;;;;17.51;55.00;101710.53;5014541;28;45561;-49
2022/05/21 03:34:03;;;;;;;;;2.50;2.25;;;;;17.20;55.56;101675.28;5015147;28;46035;-49
2022/05/21 03:36:29;;;;;;;;;2.00;2.00;;;;;17.55;55.17;101715.38;5015330;28;45630;-53
2022/05/21 03:38:55;;;;;;;;;3.00;2.00;;;;;17.64;55.04;101718.66;5015729;28;45398;-51
2022/05/21 03:41:21;;;;;;;;;5.20;3.00;;;;;17.70;55.13;101719.63;5015478;28;45756;-50
2022/05/21 03:43:47;;;;;;;;;2.80;2.40;;;;;17.69;54.80;101712.41;5015591;28;45711;-49
2022/05/21 03:46:13;;;;;;;;;4.00;4.00;;;;;17.64;54.90;101702.00;5015292;28;45580;-50
2022/05/21 03:48:38;;;;;;;;;5.40;4.00;;;;;17.71;54.64;101705.53;5015290;28;45440;-49
2022/05/21 03:51:04;;;;;;;;;3.00;3.00;;;;;17.71;54.25;101710.22;5015602;28;45372;-50
2022/05/21 03:53:29;;;;;;;;;5.00;4.00;;;;;17.72;54.14;101720.28;5014982;28;45546;-49
2022/05/21 03:55:56;;;;;;;;;2.00;2.00;;;;;17.70;54.43;101723.28;5015306;28;45295;-51
2022/05/21 03:58:21;;;;;;;;;3.20;3.00;;;;;17.57;54.48;101698.50;5030433;28;45373;-50
2022/05/21 04:00:48;;;;;;;;;3.25;2.00;;;;;17.73;54.49;101720.00;5015812;28;45203;-50
2022/05/21 04:03:13;;;;;;;;;4.80;3.60;;;;;17.59;54.45;101691.63;5015131;28;46672;-54
2022/05/21 04:05:39;;;;;;;;;4.25;3.00;;;;;17.77;54.07;101723.16;5014085;28;45331;-49
2022/05/21 04:08:04;;;;;;;;;2.75;2.75;;;;;17.80;53.98;101719.94;5018027;28;45468;-48
2022/05/21 04:10:30;;;;;;;;;4.00;4.00;;;;;17.81;53.85;101717.97;5019145;28;45555;-51
2022/05/21 04:12:55;;;;;;;;;4.75;4.75;;;;;17.56;54.14;101678.19;5018799;28;45424;-53
2022/05/21 04:15:21;;;;;;;;;3.50;3.00;;;;;17.82;54.07;101711.38;5018907;28;45438;-52
2022/05/21 04:17:47;;;;;;;;;7.00;3.00;;;;;17.82;53.85;101711.38;5018637;28;45470;-54
2022/05/21 04:20:13;;;;;;;;;4.00;2.00;;;;;17.79;53.39;101723.78;5019135;28;45365;-50
2022/05/21 04:22:39;;;;;;;;;1.80;1.80;;;;;17.75;53.09;101723.41;5018150;28;45882;-51
2022/05/21 04:25:06;;;;;;;;;3.00;3.00;;;;;17.83;53.45;101730.53;5018656;28;45497;-51
2022/05/21 04:27:35;;;;;;;;;2.20;2.00;;;;;17.68;53.36;101708.78;5018588;28;45258;-51
2022/05/21 04:30:05;;;;;;;;;5.40;3.00;;;;;17.85;53.69;101730.31;5018785;28;45444;-52
2022/05/21 04:32:30;;;;;;;;;2.40;2.40;;;;;17.82;53.64;101712.19;5018436;28;46233;-52
2022/05/21 04:34:56;;;;;;;;;6.75;4.25;;;;;17.91;53.74;101714.63;5018511;28;45311;-49
2022/05/21 04:37:21;;;;;;;;;3.00;2.00;;;;;17.95;53.66;101718.63;5018430;28;45227;-49
2022/05/21 04:39:47;;;;;;;;;4.25;4.25;;;;;17.76;53.35;101690.94;4984536;28;45532;-48
2022/05/21 04:42:12;;;;;;;;;4.00;4.00;;;;;17.94;53.35;101719.72;5017993;28;46447;-48
2022/05/21 04:44:39;;;;;;;;;3.75;3.75;;;;;17.91;53.66;101725.72;5017040;28;45326;-47
2022/05/21 04:47:05;;;;;;;;;2.00;2.00;;;;;17.91;53.49;101721.03;5018473;28;45460;-49
2022/05/21 04:49:30;;;;;;;;;3.50;2.00;;;;;17.86;53.09;101720.91;5018556;28;45609;-49
2022/05/21 04:51:56;;;;;;;;;3.25;3.25;;;;;17.86;53.02;101712.56;5016630;28;46670;-47
2022/05/21 04:54:21;;;;;;;;;4.75;3.00;;;;;17.82;53.14;101708.59;5018490;28;45287;-52
2022/05/21 04:56:47;;;;;;;;;3.50;3.00;;;;;17.84;53.07;101718.38;5033712;28;45416;-50
2022/05/21 04:59:13;;;;;;;;;2.25;2.25;;;;;17.66;53.11;101683.19;5018369;28;45488;-52
2022/05/21 05:01:39;;;;;;;;;4.00;3.00;;;;;17.80;53.07;101705.19;5016306;28;46492;-51
2022/05/21 05:04:05;;;;;;;;;3.60;3.00;;;;;17.67;52.84;101679.31;5016557;28;45460;-51
2022/05/21 05:06:30;;;;;;;;;4.20;3.20;;;;;17.92;52.93;101710.78;5016614;28;45410;-52
2022/05/21 05:08:56;;;;;;;;;3.25;3.25;;;;;17.85;53.72;101711.75;5018184;28;45532;-52
2022/05/21 05:11:21;;;;;;;;;9.00;5.25;;;;;17.83;54.43;101710.28;5017671;28;46001;-50
2022/05/21 05:13:47;;;;;;;;;6.50;5.25;;;;;17.58;54.51;101678.84;5017591;28;45298;-50
2022/05/21 05:16:12;;;;;;;;;6.00;6.00;;;;;17.68;54.60;101691.28;5017747;28;45224;-53
2022/05/21 05:18:38;;;;;;;;;5.50;4.75;;;;;17.85;54.18;101717.28;5016885;28;45573;-51
2022/05/21 05:21:03;;;;;;;;;5.75;5.75;;;;;17.82;54.74;101716.91;5016026;28;46533;-52
2022/05/21 05:23:29;;;;;;;;;4.00;4.00;;;;;17.83;54.65;101708.34;5017516;28;45288;-50
2022/05/21 05:25:54;;;;;;;;;4.50;4.50;;;;;17.82;55.08;101714.16;5017505;28;45394;-47
2022/05/21 05:28:22;;;;;;;;;8.75;5.75;;;;;17.81;55.06;101707.72;5017756;28;45302;-48
2022/05/21 05:30:48;;;;;;;;;6.80;6.80;;;;;17.71;55.37;101699.13;5017498;28;45436;-51
2022/05/21 05:33:14;;;;;;;;;4.50;4.50;;;;;17.64;55.98;101704.78;5015969;28;45473;-51
2022/05/21 05:35:40;;;;;;;;;5.40;5.40;;;;;17.68;55.97;101711.56;5017611;28;45389;-53
2022/05/21 05:38:10;;;;;;;;;5.00;4.00;;;;;17.68;55.63;101719.03;5017286;28;45573;-49
2022/05/21 05:40:36;;;;;;;;;5.60;4.40;;;;;17.70;55.36;101714.94;5017304;28;45374;-54
2022/05/21 05:43:01;;;;;;;;;5.50;5.50;;;;;17.46;55.51;101675.16;5016882;28;45396;-50
2022/05/21 05:45:27;;;;;;;;;6.00;6.00;;;;;17.68;55.92;101717.13;5017538;28;45418;-52
2022/05/21 05:47:53;;;;;;;;;6.00;5.50;;;;;17.68;55.77;101721.81;4987391;28;45882;-54
2022/05/21 05:50:19;;;;;;;;;5.20;4.00;;;;;17.67;56.17;101726.50;5016714;28;46499;-52
2022/05/21 05:52:44;;;;;;;;;7.75;6.50;;;;;17.71;56.00;101724.09;5017050;28;45339;-49
2022/05/21 05:55:10;;;;;;;;;5.25;5.25;;;;;17.75;55.81;101717.00;5016734;28;45357;-50
2022/05/21 05:57:35;;;;;;;;;6.00;5.25;;;;;17.73;55.70;101725.56;5032916;28;45655;-51
2022/05/21 06:00:01;;;;;;;;;7.50;5.75;;;;;17.73;55.73;101720.00;5016529;28;45398;-54
2022/05/21 06:05:14;;;;;;;;;4.80;4.80;;;;;17.67;55.62;101698.75;5016641;28;45740;-52
2022/05/21 06:07:41;;;;;;;;;4.20;4.20;;;;;17.92;55.33;101736.59;5017213;28;45322;-52
2022/05/21 06:10:07;;;;;;;;;3.00;3.00;;;;;17.67;55.04;101689.59;5016872;28;46276;-49
2022/05/21 06:12:33;;;;;;;;;29.50;15.75;;;;;17.90;55.12;101741.56;5016288;28;45375;-52
2022/05/21 06:14:58;;;;;;;;;6.00;5.75;;;;;17.94;54.30;101722.50;5017086;28;45373;-54
2022/05/21 06:17:25;;;;;;;;;3.00;3.00;;;;;17.94;54.59;101726.13;5016537;28;45697;-51
2022/05/21 06:19:51;;;;;;;;;3.20;3.20;;;;;18.05;54.66;101723.59;5016430;28;45952;-50
2022/05/21 06:22:16;;;;;;;;;6.00;5.20;;;;;18.02;55.10;101711.91;5031600;28;45199;-51
2022/05/21 06:24:42;;;;;;;;;4.50;4.50;;;;;17.89;55.08;101689.91;5016408;28;45339;-54
2022/05/21 06:27:07;;;;;;;;;6.50;5.25;;;;;18.12;55.53;101729.91;5016979;28;45232;-52
2022/05/21 06:29:35;;;;;;;;;7.00;4.75;;;;;18.14;55.58;101725.81;5015624;28;45354;-57
2022/05/21 06:32:02;;;;;;;;;6.80;6.00;;;;;18.17;55.21;101720.88;5016172;28;45433;-52
2022/05/21 06:34:28;;;;;;;;;7.40;4.60;;;;;17.99;55.26;101692.09;5016124;28;45490;-51
2022/05/21 06:36:54;;;;;;;;;5.75;5.00;;;;;18.14;55.24;101723.03;5016432;28;45592;-52
2022/05/21 06:39:19;;;;;;;;;7.00;3.25;;;;;17.98;55.61;101694.00;5015851;28;45428;-54
2022/05/21 06:41:45;;;;;;;;;4.25;4.25;;;;;18.03;55.31;101687.72;5015963;28;45337;-50
2022/05/21 06:44:10;;;;;;;;;5.25;3.50;;;;;18.13;55.05;101701.06;5016337;28;45414;-51
2022/05/21 06:46:37;;;;;;;;;5.75;4.50;;;;;18.35;55.11;101722.72;4987557;28;45611;-55
2022/05/21 06:49:03;;;;;;;;;5.80;4.80;;;;;18.34;54.86;101716.31;5015880;28;45938;-54
2022/05/21 06:51:28;;;;;;;;;3.75;3.75;;;;;18.35;54.72;101729.09;5036032;28;45277;-55
2022/05/21 06:53:54;;;;;;;;;3.75;3.75;;;;;18.43;54.90;101727.91;5036259;28;45281;-55
2022/05/21 06:56:20;;;;;;;;;5.25;3.75;;;;;18.42;54.29;101723.44;5036106;28;45570;-53
2022/05/21 06:58:45;;;;;;;;;5.00;4.00;;;;;18.46;53.99;101721.84;5035907;28;45466;-51
2022/05/21 07:01:11;;;;;;;;;3.50;3.50;;;;;18.40;53.77;101720.91;5030968;28;45509;-54
2022/05/21 07:03:36;;;;;;;;;2.75;2.75;;;;;18.41;53.62;101728.16;5016239;28;45438;-51
2022/05/21 07:08:47;;;;;;;;;2.80;2.80;;;;;17.99;52.55;101651.25;4988289;28;45948;-50
2022/05/21 07:11:13;;;;;;;;;5.00;4.00;;;;;18.59;52.46;101731.03;4993615;28;45370;-54
2022/05/21 07:13:39;;;;;;;;;2.40;2.40;;;;;18.55;51.98;101714.88;5007320;28;45435;-54
2022/05/21 07:16:05;;;;;;;;;3.00;3.00;;;;;18.62;52.29;101736.97;5035119;28;45812;-55
2022/05/21 07:18:30;;;;;;;;;5.00;4.25;;;;;18.67;52.16;101730.66;5034175;28;46160;-55
2022/05/21 07:20:56;;;;;;;;;5.25;5.25;;;;;18.66;52.38;101740.97;5036111;28;45246;-50
2022/05/21 07:23:22;;;;;;;;;3.00;3.00;;;;;18.69;51.94;101725.72;5032585;28;45307;-51
2022/05/21 07:25:48;;;;;;;;;3.00;3.00;;;;;18.78;51.03;101735.38;5020787;28;45615;-49
2022/05/21 07:28:13;;;;;;;;;2.75;2.75;;;;;18.87;51.39;101732.22;5035915;28;45233;-53
2022/05/21 07:30:39;;;;;;;;;4.00;2.00;;;;;18.75;50.94;101690.53;5035690;28;45707;-53
2022/05/21 07:33:12;;;;;;;;;3.60;1.00;;;;;19.02;51.14;101727.03;5034868;28;45428;-53
2022/05/21 07:35:37;;;;;;;;;4.20;4.20;;;;;19.08;50.48;101725.22;5036029;28;45218;-51
2022/05/21 07:38:07;;;;;;;;;5.00;4.00;;;;;19.14;50.66;101737.28;5032424;28;46445;-50
2022/05/21 07:40:32;;;;;;;;;5.40;3.00;;;;;18.53;50.47;101632.81;5022715;28;45446;-50
2022/05/21 07:42:58;;;;;;;;;7.75;3.00;;;;;19.19;50.60;101726.25;5017458;28;45314;-50
2022/05/21 07:45:23;;;;;;;;;2.50;2.25;;;;;19.25;50.54;101730.03;5019281;28;45374;-48
2022/05/21 07:47:49;;;;;;;;;4.25;2.25;;;;;19.23;50.51;101714.38;5009161;28;45671;-52
2022/05/21 07:50:15;;;;;;;;;4.75;2.75;;;;;19.16;50.18;101702.56;5025164;28;45788;-54
2022/05/21 07:52:41;;;;;;;;;2.00;2.00;;;;;19.41;50.01;101728.41;5037709;28;45233;-55
2022/05/21 07:55:07;;;;;;;;;2.00;2.00;;;;;19.19;49.90;101696.53;5038852;28;45342;-55
2022/05/21 07:57:33;;;;;;;;;3.20;3.00;;;;;19.31;50.63;101735.44;5017768;28;46102;-55
2022/05/21 07:59:58;;;;;;;;;2.50;2.00;;;;;19.34;48.87;101726.59;5018190;28;45516;-53
2022/05/21 08:02:24;;;;;;;;;2.50;2.50;;;;;19.43;48.66;101728.97;5017686;28;45323;-51
2022/05/21 08:04:49;;;;;;;;;1.50;1.50;;;;;19.50;48.86;101722.19;5018744;28;45318;-51
2022/05/21 08:07:15;;;;;;;;;3.50;3.25;;;;;19.49;47.84;101714.91;5018223;28;46207;-52
2022/05/21 08:09:41;;;;;;;;;3.00;2.00;;;;;19.47;48.08;101702.31;5018519;28;45402;-51
2022/05/21 08:12:14;;;;;;;;;4.00;3.00;;;;;19.46;47.80;101731.25;5016945;28;45485;-51
2022/05/21 08:14:40;;;;;;;;;3.00;3.00;;;;;19.54;48.20;101722.53;5025089;28;45835;-50
2022/05/21 08:17:06;;;;;;;;;3.80;2.40;;;;;19.66;47.45;101728.03;5036561;28;45420;-51
2022/05/21 08:19:32;;;;;;;;;3.00;3.00;;;;;19.75;48.15;101720.13;5036813;28;45385;-52
2022/05/21 08:26:56;;;;;;;;;5.25;5.25;;;;;19.90;48.38;101722.31;5038562;28;45445;-51
2022/05/21 08:27:26;;;;;;;;;1.60;1.60;;;;;20.07;48.67;101715.97;5011009;28;45916;-53
2022/05/21 08:29:52;;;;;;;;;2.00;2.00;;;;;20.13;47.91;101709.38;5005617;28;45448;-52
2022/05/21 08:32:17;;;;;;;;;2.50;2.50;;;;;20.16;46.86;101706.06;5016617;28;45412;-51
2022/05/21 08:34:43;;;;;;;;;3.25;2.00;;;;;20.24;47.08;101704.81;5017283;28;45539;-54
2022/05/21 08:37:08;;;;;;;;;2.50;2.50;;;;;20.24;47.14;101714.03;5017030;28;46598;-52
2022/05/21 08:39:36;;;;;;;;;4.50;3.25;;;;;20.22;47.21;101713.41;5028667;28;45380;-48
2022/05/21 08:42:13;;;;;;;;;3.20;3.20;;;;;20.18;46.62;101696.38;5035067;28;45420;-49
2022/05/21 08:44:48;;;;;;;;;1.20;1.00;;;;;19.83;46.24;101627.78;5016325;28;45449;-48
2022/05/21 08:47:21;;;;;;;;;2.40;1.80;;;;;20.36;46.91;101713.94;5004928;28;46908;-52
2022/05/21 08:49:47;;;;;;;;;3.20;1.20;;;;;20.44;47.15;101707.91;5015759;28;45353;-50
2022/05/21 08:52:35;;;;;;;;;5.25;3.25;;;;;20.49;47.09;101709.09;5014334;28;45460;-58
2022/05/21 08:55:03;;;;;;;;;3.00;3.00;;;;;20.51;47.55;101704.13;5015381;28;45350;-55
2022/05/21 08:57:33;;;;;;;;;1.00;1.00;;;;;20.56;46.86;101709.78;5015430;28;46444;-54
2022/05/21 09:00:04;;;;;;;;;5.40;3.60;;;;;20.60;46.96;101708.16;5017060;28;45411;-48
2022/05/21 09:02:31;;;;;;;;;2.00;2.00;;;;;20.50;46.71;101686.56;5015391;28;45429;-54
2022/05/21 09:04:57;;;;;;;;;2.00;2.00;;;;;20.57;46.06;101709.53;5036040;28;45934;-53
2022/05/21 09:07:24;;;;;;;;;1.25;1.25;;;;;20.34;47.00;101687.41;5036279;28;46103;-54
2022/05/21 09:10:06;;;;;;;;;2.00;1.80;;;;;20.30;46.77;101671.22;5018831;28;45609;-53
2022/05/21 09:12:45;;;;;;;;;4.00;2.00;;;;;20.27;46.34;101645.78;5035423;28;45349;-53
2022/05/21 09:16:54;;;;;;;;;2.20;2.20;;;;;20.57;45.93;101686.34;5019749;28;45631;-53
2022/05/21 09:18:04;;;;;;;;;1.00;1.00;;;;;20.58;46.41;101674.09;5035529;28;45955;-48
2022/05/21 09:20:30;;;;;;;;;2.50;2.50;;;;;20.65;45.23;101679.50;5018002;28;45439;-50
2022/05/21 09:22:56;;;;;;;;;3.50;3.00;;;;;20.63;46.08;101676.97;4998255;28;45445;-51
2022/05/21 09:25:24;;;;;;;;;2.60;2.60;;;;;20.44;45.60;101638.22;5014216;28;45396;-54
2022/05/21 09:28:10;;;;;;;;;2.00;1.00;;;;;20.65;45.69;101666.38;5016498;28;46329;-49
2022/05/21 09:30:40;;;;;;;;;2.60;2.40;;;;;20.68;46.08;101670.59;5016220;28;45491;-54
2022/05/21 09:33:20;;;;;;;;;1.20;0.60;;;;;20.62;45.45;101672.50;5015791;28;45450;-51
2022/05/21 09:35:53;;;;;;;;;2.00;2.00;;;;;20.57;45.32;101659.31;5015383;28;45370;-54
2022/05/21 09:38:52;;;;;;;;;3.40;3.40;;;;;20.65;44.95;101665.56;5015600;28;45791;-56
2022/05/21 09:41:22;;;;;;;;;0.80;0.60;;;;;20.62;45.27;101661.34;5018953;28;45666;-56
2022/05/21 09:47:21;;;;;;;;;1.60;1.60;;;;;20.77;45.66;101659.84;5026581;28;45674;-53
2022/05/21 09:50:23;;;;;;;;;1.60;1.60;;;;;20.87;45.05;101664.75;5034747;28;46583;-55
2022/05/21 09:52:49;;;;;;;;;4.00;3.00;;;;;20.50;45.12;101621.56;5044409;28;45455;-48
2022/05/21 09:55:32;;;;;;;;;3.20;2.60;;;;;20.80;45.14;101664.91;5035959;28;45510;-50
2022/05/21 09:58:09;;;;;;;;;3.60;1.80;;;;;20.84;44.83;101653.03;5016796;28;45504;-55
2022/05/21 10:00:36;;;;;;;;;2.60;1.60;;;;;20.85;44.89;101645.47;5034013;28;45852;-54
2022/05/21 10:03:07;;;;;;;;;0.80;0.80;;;;;20.96;44.74;101647.28;5035992;28;45464;-54
2022/05/21 10:05:40;;;;;;;;;0.60;0.60;;;;;20.95;45.30;101628.88;5035202;28;45263;-52
2022/05/21 10:11:05;;;;;;;;;3.00;3.00;;;;;21.04;44.93;101643.22;5034427;28;45411;-48
2022/05/21 10:13:33;;;;;;;;;4.20;4.00;;;;;21.02;45.31;101641.78;5001659;28;45485;-54
2022/05/21 10:16:33;;;;;;;;;2.40;2.20;;;;;20.97;45.36;101635.03;5016157;28;45448;-55
2022/05/21 10:19:33;;;;;;;;;3.00;3.00;;;;;20.90;45.51;101608.41;5015035;28;45885;-54
2022/05/21 10:22:09;;;;;;;;;1.20;1.20;;;;;20.85;45.47;101598.03;5003205;28;47176;-52
2022/05/21 10:24:43;;;;;;;;;1.80;1.80;;;;;21.19;45.34;101642.53;5015294;28;45381;-50
2022/05/21 10:27:35;;;;;;;;;3.00;3.00;;;;;21.24;45.16;101639.78;5015381;28;45444;-52
2022/05/21 10:30:25;;;;;;;;;3.00;2.20;;;;;21.29;45.21;101636.19;5015681;28;45437;-49
2022/05/21 10:33:12;;;;;;;;;2.40;1.80;;;;;21.17;44.47;101618.78;5016208;28;45469;-55
2022/05/21 10:36:08;;;;;;;;;2.60;2.60;;;;;21.33;45.11;101628.16;5016537;28;45337;-52
2022/05/21 10:38:45;;;;;;;;;3.80;2.80;;;;;21.30;44.67;101639.84;5015123;28;45775;-49
2022/05/21 10:41:28;;;;;;;;;3.00;2.80;;;;;21.44;45.08;101629.13;5016512;28;45452;-53
2022/05/21 10:44:00;;;;;;;;;2.00;2.00;;;;;21.59;44.87;101633.97;5016044;28;45808;-52
2022/05/21 10:46:53;;;;;;;;;4.80;2.00;;;;;21.75;44.48;101635.00;5015291;28;45270;-53
2022/05/21 10:49:37;;;;;;;;;2.00;2.00;;;;;21.86;44.12;101627.53;5016382;28;45397;-53
2022/05/21 10:52:11;;;;;;;;;4.60;3.60;;;;;21.89;44.34;101613.88;5006990;28;45452;-54
2022/05/21 10:55:34;;;;;;;;;3.00;1.80;;;;;21.99;44.43;101620.66;4958477;28;50225;-51
2022/05/21 10:58:32;;;;;;;;;3.00;2.20;;;;;21.90;44.12;101596.03;4969110;28;45442;-52
2022/05/21 11:01:16;;;;;;;;;4.40;2.00;;;;;21.99;43.56;101613.09;4945704;28;45806;-51
2022/05/21 11:04:01;;;;;;;;;4.00;2.80;;;;;22.01;44.03;101608.09;4971649;28;46072;-49
2022/05/21 11:06:32;;;;;;;;;2.00;2.00;;;;;22.17;43.39;101608.19;4971965;28;46409;-51
2022/05/21 11:09:02;;;;;;;;;3.00;2.40;;;;;22.29;42.89;101602.38;4996889;28;45371;-52
2022/05/21 11:11:42;;;;;;;;;3.00;1.20;;;;;22.33;43.00;101600.75;5009077;28;45407;-49
2022/05/21 11:14:37;;;;;;;;;2.40;2.40;;;;;22.39;42.36;101596.88;4992550;28;45869;-50
2022/05/21 11:17:18;;;;;;;;;2.00;2.00;;;;;22.28;42.66;101570.81;4990908;28;46700;-48
2022/05/21 11:19:49;;;;;;;;;0.40;0.20;;;;;21.90;42.55;101495.44;4977086;28;45815;-54
2022/05/21 11:22:17;;;;;;;;;2.00;2.00;;;;;22.60;41.97;101592.25;4974710;28;45776;-57
2022/05/21 11:25:10;;;;;;;;;1.60;1.60;;;;;22.53;42.27;101586.06;4971027;28;45913;-57
2022/05/21 11:27:55;;;;;;;;;3.00;1.40;;;;;22.53;42.28;101591.66;4972172;28;46267;-57
2022/05/21 11:30:21;;;;;;;;;2.60;2.60;;;;;22.65;42.10;101588.63;4983951;28;45501;-55
2022/05/21 11:38:39;;;;;;;;;1.80;1.80;;;;;22.87;41.94;101573.59;4989321;28;45394;-54
2022/05/21 11:41:30;;;;;;;;;2.40;2.40;;;;;22.97;42.03;101578.38;4990520;28;45631;-56
2022/05/21 11:47:06;;;;;;;;;4.00;3.00;;;;;23.14;41.46;101567.78;5011321;28;45787;-57
2022/05/21 11:49:52;;;;;;;;;3.00;3.00;;;;;23.21;41.10;101563.88;5011132;28;46125;-53
2022/05/21 11:52:26;;;;;;;;;2.00;2.00;;;;;23.35;40.43;101547.38;5011185;28;45410;-56
2022/05/21 11:54:55;;;;;;;;;2.60;2.60;;;;;23.49;40.25;101554.13;5001759;28;45411;-58
2022/05/21 11:57:53;;;;;;;;;3.20;1.60;;;;;23.29;39.75;101524.09;5009724;28;45535;-54
2022/05/21 12:00:18;;;;;;;;;2.40;1.40;;;;;23.53;40.61;101546.00;5018656;28;46284;-56
2022/05/21 12:03:05;;;;;;;;;4.00;2.00;;;;;23.63;40.30;101547.94;5030880;28;45489;-52
2022/05/21 12:05:37;;;;;;;;;2.00;2.00;;;;;23.38;39.36;101546.84;5030956;28;45698;-52
2022/05/21 12:08:17;;;;;;;;;2.00;2.00;;;;;23.04;40.64;101531.34;5031099;28;45891;-56
2022/05/21 12:11:22;;;;;;;;;2.60;2.60;;;;;23.04;41.10;101545.34;5015896;28;47304;-52